sensor_id;sensor_type;location;lat;lon;timestamp;P1;durP1;ratioP1;P2;durP2;ratioP2
21206;SDS011;10761;48.532;8.026;2023-07-28T00:02:20;2.30;;;1.65;;
21206;SDS011;10761;48.532;8.026;2023-07-28T00:04:46;4.90;;;1.92;;
21206;SDS011;10761;48.532;8.026;2023-07-28T00:07:11;3.85;;;1.80;;
21206;SDS011;10761;48.532;8.026;2023-07-28T00:09:37;1.83;;;1.73;;
21206;SDS011;10761;48.532;8.026;2023-07-28T00:12:03;4.05;;;1.77;;
21206;SDS011;10761;48.532;8.026;2023-07-28T00:14:29;2.63;;;1.80;;
21206;SDS011;10761;48.532;8.026;2023-07-28T00:16:55;3.83;;;1.50;;
21206;SDS011;10761;48.532;8.026;2023-07-28T00:19:21;3.97;;;1.80;;
21206;SDS011;10761;48.532;8.026;2023-07-28T00:21:47;1.98;;;1.60;;
21206;SDS011;10761;48.532;8.026;2023-07-28T00:24:14;1.90;;;1.75;;
21206;SDS011;10761;48.532;8.026;2023-07-28T00:26:40;3.80;;;1.67;;
21206;SDS011;10761;48.532;8.026;2023-07-28T00:29:05;1.80;;;1.70;;
21206;SDS011;10761;48.532;8.026;2023-07-28T00:31:32;5.65;;;1.90;;
21206;SDS011;10761;48.532;8.026;2023-07-28T00:33:58;1.73;;;1.63;;
21206;SDS011;10761;48.532;8.026;2023-07-28T00:36:24;3.25;;;1.73;;
21206;SDS011;10761;48.532;8.026;2023-07-28T00:38:49;1.73;;;1.63;;
21206;SDS011;10761;48.532;8.026;2023-07-28T00:41:15;3.72;;;1.70;;
21206;SDS011;10761;48.532;8.026;2023-07-28T00:43:41;3.60;;;1.52;;
21206;SDS011;10761;48.532;8.026;2023-07-28T00:46:06;4.00;;;1.80;;
21206;SDS011;10761;48.532;8.026;2023-07-28T00:48:33;2.15;;;1.60;;
21206;SDS011;10761;48.532;8.026;2023-07-28T00:50:59;2.83;;;1.75;;
21206;SDS011;10761;48.532;8.026;2023-07-28T00:53:24;3.15;;;1.80;;
21206;SDS011;10761;48.532;8.026;2023-07-28T00:55:51;1.90;;;1.33;;
21206;SDS011;10761;48.532;8.026;2023-07-28T00:58:17;2.17;;;1.75;;
21206;SDS011;10761;48.532;8.026;2023-07-28T01:00:43;2.08;;;1.60;;
21206;SDS011;10761;48.532;8.026;2023-07-28T01:03:09;1.58;;;1.48;;
21206;SDS011;10761;48.532;8.026;2023-07-28T01:05:48;3.00;;;1.75;;
21206;SDS011;10761;48.532;8.026;2023-07-28T01:11:13;2.80;;;1.80;;
21206;SDS011;10761;48.532;8.026;2023-07-28T01:13:39;2.25;;;1.50;;
21206;SDS011;10761;48.532;8.026;2023-07-28T01:16:05;1.40;;;1.30;;
21206;SDS011;10761;48.532;8.026;2023-07-28T01:18:33;2.67;;;1.60;;
21206;SDS011;10761;48.532;8.026;2023-07-28T01:21:00;3.80;;;1.90;;
21206;SDS011;10761;48.532;8.026;2023-07-28T01:23:37;4.30;;;1.65;;
21206;SDS011;10761;48.532;8.026;2023-07-28T01:26:11;1.73;;;1.63;;
21206;SDS011;10761;48.532;8.026;2023-07-28T01:28:40;3.10;;;1.50;;
21206;SDS011;10761;48.532;8.026;2023-07-28T01:31:07;4.18;;;1.60;;
21206;SDS011;10761;48.532;8.026;2023-07-28T01:33:33;1.90;;;1.63;;
21206;SDS011;10761;48.532;8.026;2023-07-28T01:35:59;3.20;;;1.80;;
21206;SDS011;10761;48.532;8.026;2023-07-28T01:38:28;2.38;;;1.30;;
21206;SDS011;10761;48.532;8.026;2023-07-28T01:40:54;2.25;;;1.73;;
21206;SDS011;10761;48.532;8.026;2023-07-28T01:43:19;1.80;;;1.60;;
21206;SDS011;10761;48.532;8.026;2023-07-28T01:45:45;2.63;;;1.60;;
21206;SDS011;10761;48.532;8.026;2023-07-28T01:48:10;3.20;;;1.67;;
21206;SDS011;10761;48.532;8.026;2023-07-28T01:50:36;1.98;;;1.80;;
21206;SDS011;10761;48.532;8.026;2023-07-28T01:53:03;1.98;;;1.80;;
21206;SDS011;10761;48.532;8.026;2023-07-28T01:55:29;2.15;;;1.50;;
21206;SDS011;10761;48.532;8.026;2023-07-28T01:57:56;2.67;;;1.80;;
21206;SDS011;10761;48.532;8.026;2023-07-28T02:00:23;2.35;;;1.85;;
21206;SDS011;10761;48.532;8.026;2023-07-28T02:02:49;4.38;;;1.73;;
21206;SDS011;10761;48.532;8.026;2023-07-28T02:05:15;3.28;;;1.80;;
21206;SDS011;10761;48.532;8.026;2023-07-28T02:07:41;1.98;;;1.50;;
21206;SDS011;10761;48.532;8.026;2023-07-28T02:10:07;3.58;;;1.70;;
21206;SDS011;10761;48.532;8.026;2023-07-28T02:12:33;3.20;;;1.85;;
21206;SDS011;10761;48.532;8.026;2023-07-28T02:14:59;2.13;;;1.77;;
21206;SDS011;10761;48.532;8.026;2023-07-28T02:17:24;2.92;;;1.60;;
21206;SDS011;10761;48.532;8.026;2023-07-28T02:19:50;3.58;;;1.42;;
21206;SDS011;10761;48.532;8.026;2023-07-28T02:22:16;2.08;;;1.63;;
21206;SDS011;10761;48.532;8.026;2023-07-28T02:24:41;1.90;;;1.48;;
21206;SDS011;10761;48.532;8.026;2023-07-28T02:27:07;6.22;;;1.80;;
21206;SDS011;10761;48.532;8.026;2023-07-28T02:29:32;2.28;;;1.60;;
21206;SDS011;10761;48.532;8.026;2023-07-28T02:31:58;4.53;;;1.90;;
21206;SDS011;10761;48.532;8.026;2023-07-28T02:34:23;5.88;;;1.80;;
21206;SDS011;10761;48.532;8.026;2023-07-28T02:36:49;2.33;;;1.80;;
21206;SDS011;10761;48.532;8.026;2023-07-28T02:39:15;3.30;;;1.92;;
21206;SDS011;10761;48.532;8.026;2023-07-28T02:41:40;4.00;;;2.20;;
21206;SDS011;10761;48.532;8.026;2023-07-28T02:44:07;3.75;;;1.67;;
21206;SDS011;10761;48.532;8.026;2023-07-28T02:46:33;2.63;;;1.80;;
21206;SDS011;10761;48.532;8.026;2023-07-28T02:48:58;5.20;;;1.90;;
21206;SDS011;10761;48.532;8.026;2023-07-28T02:51:24;3.33;;;1.65;;
21206;SDS011;10761;48.532;8.026;2023-07-28T02:53:50;2.22;;;1.80;;
21206;SDS011;10761;48.532;8.026;2023-07-28T02:56:15;2.03;;;1.80;;
21206;SDS011;10761;48.532;8.026;2023-07-28T02:58:41;1.50;;;1.40;;
21206;SDS011;10761;48.532;8.026;2023-07-28T03:01:06;5.47;;;2.30;;
21206;SDS011;10761;48.532;8.026;2023-07-28T03:03:32;2.88;;;2.08;;
21206;SDS011;10761;48.532;8.026;2023-07-28T03:05:57;3.72;;;2.30;;
21206;SDS011;10761;48.532;8.026;2023-07-28T03:08:23;2.22;;;2.03;;
21206;SDS011;10761;48.532;8.026;2023-07-28T03:10:48;5.03;;;2.22;;
21206;SDS011;10761;48.532;8.026;2023-07-28T03:13:14;4.15;;;2.33;;
21206;SDS011;10761;48.532;8.026;2023-07-28T03:15:39;5.63;;;2.67;;
21206;SDS011;10761;48.532;8.026;2023-07-28T03:18:05;4.60;;;2.50;;
21206;SDS011;10761;48.532;8.026;2023-07-28T03:20:31;6.72;;;2.50;;
21206;SDS011;10761;48.532;8.026;2023-07-28T03:22:56;3.70;;;2.55;;
21206;SDS011;10761;48.532;8.026;2023-07-28T03:25:22;2.72;;;2.45;;
21206;SDS011;10761;48.532;8.026;2023-07-28T03:27:47;3.58;;;2.50;;
21206;SDS011;10761;48.532;8.026;2023-07-28T03:30:13;4.65;;;2.65;;
21206;SDS011;10761;48.532;8.026;2023-07-28T03:32:39;5.05;;;2.60;;
21206;SDS011;10761;48.532;8.026;2023-07-28T03:35:05;3.28;;;2.20;;
21206;SDS011;10761;48.532;8.026;2023-07-28T03:37:31;3.88;;;2.33;;
21206;SDS011;10761;48.532;8.026;2023-07-28T03:39:57;4.32;;;2.53;;
21206;SDS011;10761;48.532;8.026;2023-07-28T03:42:23;4.35;;;2.47;;
21206;SDS011;10761;48.532;8.026;2023-07-28T03:44:49;3.03;;;2.40;;
21206;SDS011;10761;48.532;8.026;2023-07-28T03:47:15;4.32;;;2.70;;
21206;SDS011;10761;48.532;8.026;2023-07-28T03:49:40;2.50;;;2.30;;
21206;SDS011;10761;48.532;8.026;2023-07-28T03:52:06;3.28;;;2.58;;
21206;SDS011;10761;48.532;8.026;2023-07-28T03:54:31;3.60;;;2.50;;
21206;SDS011;10761;48.532;8.026;2023-07-28T03:56:57;4.10;;;2.97;;
21206;SDS011;10761;48.532;8.026;2023-07-28T03:59:23;3.70;;;2.47;;
21206;SDS011;10761;48.532;8.026;2023-07-28T04:01:48;3.55;;;2.38;;
21206;SDS011;10761;48.532;8.026;2023-07-28T04:04:14;2.70;;;2.28;;
21206;SDS011;10761;48.532;8.026;2023-07-28T04:06:47;2.90;;;2.58;;
21206;SDS011;10761;48.532;8.026;2023-07-28T04:09:18;3.85;;;2.50;;
21206;SDS011;10761;48.532;8.026;2023-07-28T04:11:44;3.55;;;2.72;;
21206;SDS011;10761;48.532;8.026;2023-07-28T04:14:10;2.55;;;2.33;;
21206;SDS011;10761;48.532;8.026;2023-07-28T04:16:36;6.22;;;2.80;;
21206;SDS011;10761;48.532;8.026;2023-07-28T04:19:01;4.07;;;2.97;;
21206;SDS011;10761;48.532;8.026;2023-07-28T04:21:27;5.90;;;2.53;;
21206;SDS011;10761;48.532;8.026;2023-07-28T04:23:53;5.10;;;2.33;;
21206;SDS011;10761;48.532;8.026;2023-07-28T04:26:18;5.25;;;2.58;;
21206;SDS011;10761;48.532;8.026;2023-07-28T04:28:44;4.20;;;2.72;;
21206;SDS011;10761;48.532;8.026;2023-07-28T04:31:10;2.97;;;2.50;;
21206;SDS011;10761;48.532;8.026;2023-07-28T04:33:36;4.65;;;3.08;;
21206;SDS011;10761;48.532;8.026;2023-07-28T04:36:05;3.17;;;2.70;;
21206;SDS011;10761;48.532;8.026;2023-07-28T04:38:31;2.72;;;2.42;;
21206;SDS011;10761;48.532;8.026;2023-07-28T04:40:56;6.03;;;2.90;;
21206;SDS011;10761;48.532;8.026;2023-07-28T04:43:22;2.95;;;2.55;;
21206;SDS011;10761;48.532;8.026;2023-07-28T04:45:48;3.13;;;2.83;;
21206;SDS011;10761;48.532;8.026;2023-07-28T04:48:13;3.78;;;2.88;;
21206;SDS011;10761;48.532;8.026;2023-07-28T04:50:39;3.30;;;3.00;;
21206;SDS011;10761;48.532;8.026;2023-07-28T04:53:05;4.85;;;2.83;;
21206;SDS011;10761;48.532;8.026;2023-07-28T04:55:30;5.40;;;2.90;;
21206;SDS011;10761;48.532;8.026;2023-07-28T04:57:56;4.07;;;2.83;;
21206;SDS011;10761;48.532;8.026;2023-07-28T05:00:22;5.53;;;2.70;;
21206;SDS011;10761;48.532;8.026;2023-07-28T05:02:48;2.88;;;2.53;;
21206;SDS011;10761;48.532;8.026;2023-07-28T05:05:14;4.95;;;3.05;;
21206;SDS011;10761;48.532;8.026;2023-07-28T05:07:39;2.92;;;2.63;;
21206;SDS011;10761;48.532;8.026;2023-07-28T05:10:05;4.80;;;3.08;;
21206;SDS011;10761;48.532;8.026;2023-07-28T05:12:31;3.25;;;2.50;;
21206;SDS011;10761;48.532;8.026;2023-07-28T05:14:56;3.92;;;3.13;;
21206;SDS011;10761;48.532;8.026;2023-07-28T05:17:22;3.75;;;2.70;;
21206;SDS011;10761;48.532;8.026;2023-07-28T05:19:49;5.10;;;3.10;;
21206;SDS011;10761;48.532;8.026;2023-07-28T05:22:15;7.68;;;3.40;;
21206;SDS011;10761;48.532;8.026;2023-07-28T05:24:41;5.72;;;3.70;;
21206;SDS011;10761;48.532;8.026;2023-07-28T05:27:06;6.95;;;4.45;;
21206;SDS011;10761;48.532;8.026;2023-07-28T05:29:32;7.20;;;4.38;;
21206;SDS011;10761;48.532;8.026;2023-07-28T05:31:58;4.38;;;3.50;;
21206;SDS011;10761;48.532;8.026;2023-07-28T05:34:24;5.40;;;3.45;;
21206;SDS011;10761;48.532;8.026;2023-07-28T05:36:50;4.10;;;3.55;;
21206;SDS011;10761;48.532;8.026;2023-07-28T05:39:16;3.95;;;3.20;;
21206;SDS011;10761;48.532;8.026;2023-07-28T05:41:41;4.63;;;3.30;;
21206;SDS011;10761;48.532;8.026;2023-07-28T05:44:07;5.18;;;3.53;;
21206;SDS011;10761;48.532;8.026;2023-07-28T05:46:32;4.10;;;3.70;;
21206;SDS011;10761;48.532;8.026;2023-07-28T05:48:59;3.97;;;3.40;;
21206;SDS011;10761;48.532;8.026;2023-07-28T05:51:25;4.65;;;3.45;;
21206;SDS011;10761;48.532;8.026;2023-07-28T05:53:50;5.90;;;3.65;;
21206;SDS011;10761;48.532;8.026;2023-07-28T05:56:16;3.85;;;3.55;;
21206;SDS011;10761;48.532;8.026;2023-07-28T05:58:44;6.10;;;3.63;;
21206;SDS011;10761;48.532;8.026;2023-07-28T06:01:13;5.47;;;3.78;;
21206;SDS011;10761;48.532;8.026;2023-07-28T06:03:39;5.97;;;4.00;;
21206;SDS011;10761;48.532;8.026;2023-07-28T06:06:04;5.72;;;3.92;;
21206;SDS011;10761;48.532;8.026;2023-07-28T06:08:30;6.55;;;3.95;;
21206;SDS011;10761;48.532;8.026;2023-07-28T06:10:56;6.80;;;4.10;;
21206;SDS011;10761;48.532;8.026;2023-07-28T06:13:22;7.05;;;4.20;;
21206;SDS011;10761;48.532;8.026;2023-07-28T06:15:47;6.47;;;4.10;;
21206;SDS011;10761;48.532;8.026;2023-07-28T06:18:13;6.75;;;4.22;;
21206;SDS011;10761;48.532;8.026;2023-07-28T06:20:42;4.40;;;3.72;;
21206;SDS011;10761;48.532;8.026;2023-07-28T06:23:08;4.40;;;3.70;;
21206;SDS011;10761;48.532;8.026;2023-07-28T06:25:33;5.22;;;4.10;;
21206;SDS011;10761;48.532;8.026;2023-07-28T06:27:59;4.60;;;3.90;;
21206;SDS011;10761;48.532;8.026;2023-07-28T06:30:25;4.28;;;3.80;;
21206;SDS011;10761;48.532;8.026;2023-07-28T06:32:51;5.07;;;3.55;;
21206;SDS011;10761;48.532;8.026;2023-07-28T06:35:16;5.07;;;4.03;;
21206;SDS011;10761;48.532;8.026;2023-07-28T06:37:42;5.32;;;3.95;;
21206;SDS011;10761;48.532;8.026;2023-07-28T06:40:08;5.72;;;3.85;;
21206;SDS011;10761;48.532;8.026;2023-07-28T06:42:34;4.47;;;3.92;;
21206;SDS011;10761;48.532;8.026;2023-07-28T06:45:01;4.88;;;3.47;;
21206;SDS011;10761;48.532;8.026;2023-07-28T06:47:30;3.92;;;3.53;;
21206;SDS011;10761;48.532;8.026;2023-07-28T06:49:56;3.78;;;3.25;;
21206;SDS011;10761;48.532;8.026;2023-07-28T06:52:21;5.95;;;3.75;;
21206;SDS011;10761;48.532;8.026;2023-07-28T06:54:47;4.32;;;3.28;;
21206;SDS011;10761;48.532;8.026;2023-07-28T06:57:14;6.50;;;3.10;;
21206;SDS011;10761;48.532;8.026;2023-07-28T06:59:40;7.78;;;3.63;;
21206;SDS011;10761;48.532;8.026;2023-07-28T07:02:07;3.35;;;2.95;;
21206;SDS011;10761;48.532;8.026;2023-07-28T07:04:34;4.03;;;3.28;;
21206;SDS011;10761;48.532;8.026;2023-07-28T07:06:59;5.20;;;3.40;;
21206;SDS011;10761;48.532;8.026;2023-07-28T07:09:25;3.88;;;3.10;;
21206;SDS011;10761;48.532;8.026;2023-07-28T07:11:50;3.50;;;3.20;;
21206;SDS011;10761;48.532;8.026;2023-07-28T07:14:16;3.13;;;2.83;;
21206;SDS011;10761;48.532;8.026;2023-07-28T07:16:42;3.97;;;3.10;;
21206;SDS011;10761;48.532;8.026;2023-07-28T07:19:07;4.32;;;2.92;;
21206;SDS011;10761;48.532;8.026;2023-07-28T07:21:36;2.92;;;2.63;;
21206;SDS011;10761;48.532;8.026;2023-07-28T07:24:02;3.65;;;2.40;;
21206;SDS011;10761;48.532;8.026;2023-07-28T07:26:29;3.17;;;2.63;;
21206;SDS011;10761;48.532;8.026;2023-07-28T07:28:56;2.90;;;2.60;;
21206;SDS011;10761;48.532;8.026;2023-07-28T07:31:22;3.75;;;2.85;;
21206;SDS011;10761;48.532;8.026;2023-07-28T07:33:48;3.30;;;2.53;;
21206;SDS011;10761;48.532;8.026;2023-07-28T07:36:14;3.55;;;2.47;;
21206;SDS011;10761;48.532;8.026;2023-07-28T07:38:41;3.47;;;2.55;;
21206;SDS011;10761;48.532;8.026;2023-07-28T07:41:07;3.35;;;2.75;;
21206;SDS011;10761;48.532;8.026;2023-07-28T07:43:35;3.28;;;2.60;;
21206;SDS011;10761;48.532;8.026;2023-07-28T07:46:01;2.60;;;2.40;;
21206;SDS011;10761;48.532;8.026;2023-07-28T07:48:27;2.58;;;2.38;;
21206;SDS011;10761;48.532;8.026;2023-07-28T07:50:52;2.92;;;2.58;;
21206;SDS011;10761;48.532;8.026;2023-07-28T07:53:18;2.67;;;2.40;;
21206;SDS011;10761;48.532;8.026;2023-07-28T07:55:44;3.33;;;2.63;;
21206;SDS011;10761;48.532;8.026;2023-07-28T07:58:09;3.10;;;2.70;;
21206;SDS011;10761;48.532;8.026;2023-07-28T08:00:36;4.32;;;2.40;;
21206;SDS011;10761;48.532;8.026;2023-07-28T08:03:03;3.42;;;2.30;;
21206;SDS011;10761;48.532;8.026;2023-07-28T08:05:30;2.40;;;2.20;;
21206;SDS011;10761;48.532;8.026;2023-07-28T08:07:55;3.83;;;2.40;;
21206;SDS011;10761;48.532;8.026;2023-07-28T08:10:21;3.38;;;2.22;;
21206;SDS011;10761;48.532;8.026;2023-07-28T08:12:47;2.60;;;2.40;;
21206;SDS011;10761;48.532;8.026;2023-07-28T08:15:13;3.15;;;2.40;;
21206;SDS011;10761;48.532;8.026;2023-07-28T08:17:39;6.40;;;2.30;;
21206;SDS011;10761;48.532;8.026;2023-07-28T08:20:05;2.63;;;2.25;;
21206;SDS011;10761;48.532;8.026;2023-07-28T08:22:32;4.28;;;2.67;;
21206;SDS011;10761;48.532;8.026;2023-07-28T08:24:57;3.10;;;2.30;;
21206;SDS011;10761;48.532;8.026;2023-07-28T08:27:23;2.70;;;2.50;;
21206;SDS011;10761;48.532;8.026;2023-07-28T08:29:49;3.08;;;2.45;;
21206;SDS011;10761;48.532;8.026;2023-07-28T08:32:14;2.72;;;2.35;;
21206;SDS011;10761;48.532;8.026;2023-07-28T08:34:40;4.88;;;2.75;;
21206;SDS011;10761;48.532;8.026;2023-07-28T08:37:06;2.38;;;2.17;;
21206;SDS011;10761;48.532;8.026;2023-07-28T08:39:32;2.78;;;2.40;;
21206;SDS011;10761;48.532;8.026;2023-07-28T08:42:01;3.38;;;2.45;;
21206;SDS011;10761;48.532;8.026;2023-07-28T08:44:31;4.47;;;2.38;;
21206;SDS011;10761;48.532;8.026;2023-07-28T08:46:59;5.60;;;2.53;;
21206;SDS011;10761;48.532;8.026;2023-07-28T08:49:25;3.42;;;2.55;;
21206;SDS011;10761;48.532;8.026;2023-07-28T08:51:51;3.05;;;2.63;;
21206;SDS011;10761;48.532;8.026;2023-07-28T08:54:17;3.15;;;2.55;;
21206;SDS011;10761;48.532;8.026;2023-07-28T08:56:43;3.15;;;2.55;;
21206;SDS011;10761;48.532;8.026;2023-07-28T08:59:09;4.10;;;2.63;;
21206;SDS011;10761;48.532;8.026;2023-07-28T09:01:38;2.78;;;2.50;;
21206;SDS011;10761;48.532;8.026;2023-07-28T09:04:11;3.80;;;2.72;;
21206;SDS011;10761;48.532;8.026;2023-07-28T09:06:37;3.17;;;2.58;;
21206;SDS011;10761;48.532;8.026;2023-07-28T09:09:06;2.92;;;2.50;;
21206;SDS011;10761;48.532;8.026;2023-07-28T09:11:32;4.07;;;2.65;;
21206;SDS011;10761;48.532;8.026;2023-07-28T09:13:59;3.00;;;2.67;;
21206;SDS011;10761;48.532;8.026;2023-07-28T09:16:25;4.78;;;2.50;;
21206;SDS011;10761;48.532;8.026;2023-07-28T09:19:03;2.90;;;2.25;;
21206;SDS011;10761;48.532;8.026;2023-07-28T09:21:30;4.45;;;2.35;;
21206;SDS011;10761;48.532;8.026;2023-07-28T09:23:59;2.83;;;2.30;;
21206;SDS011;10761;48.532;8.026;2023-07-28T09:26:36;4.22;;;2.50;;
21206;SDS011;10761;48.532;8.026;2023-07-28T09:29:15;3.47;;;2.88;;
21206;SDS011;10761;48.532;8.026;2023-07-28T09:31:42;3.78;;;2.20;;
21206;SDS011;10761;48.532;8.026;2023-07-28T09:34:09;3.58;;;2.65;;
21206;SDS011;10761;48.532;8.026;2023-07-28T09:36:36;3.17;;;2.65;;
21206;SDS011;10761;48.532;8.026;2023-07-28T09:39:03;3.72;;;2.47;;
21206;SDS011;10761;48.532;8.026;2023-07-28T09:41:34;2.83;;;2.47;;
21206;SDS011;10761;48.532;8.026;2023-07-28T09:44:01;2.63;;;2.42;;
21206;SDS011;10761;48.532;8.026;2023-07-28T09:46:27;2.60;;;2.40;;
21206;SDS011;10761;48.532;8.026;2023-07-28T09:48:56;3.25;;;2.72;;
21206;SDS011;10761;48.532;8.026;2023-07-28T09:51:25;3.33;;;2.70;;
21206;SDS011;10761;48.532;8.026;2023-07-28T09:54:02;2.95;;;2.60;;
21206;SDS011;10761;48.532;8.026;2023-07-28T09:56:30;3.33;;;2.45;;
21206;SDS011;10761;48.532;8.026;2023-07-28T09:58:56;3.50;;;2.25;;
21206;SDS011;10761;48.532;8.026;2023-07-28T10:01:23;3.00;;;2.70;;
21206;SDS011;10761;48.532;8.026;2023-07-28T10:03:50;5.13;;;2.88;;
21206;SDS011;10761;48.532;8.026;2023-07-28T10:06:16;3.75;;;2.50;;
21206;SDS011;10761;48.532;8.026;2023-07-28T10:08:43;4.60;;;2.80;;
21206;SDS011;10761;48.532;8.026;2023-07-28T10:11:10;3.33;;;2.42;;
21206;SDS011;10761;48.532;8.026;2023-07-28T10:13:40;4.57;;;2.63;;
21206;SDS011;10761;48.532;8.026;2023-07-28T10:16:07;5.07;;;2.40;;
21206;SDS011;10761;48.532;8.026;2023-07-28T10:18:34;2.88;;;2.40;;
21206;SDS011;10761;48.532;8.026;2023-07-28T10:21:08;4.30;;;2.20;;
21206;SDS011;10761;48.532;8.026;2023-07-28T10:23:41;3.60;;;2.60;;
21206;SDS011;10761;48.532;8.026;2023-07-28T10:26:12;3.40;;;2.50;;
21206;SDS011;10761;48.532;8.026;2023-07-28T10:28:38;2.63;;;2.42;;
21206;SDS011;10761;48.532;8.026;2023-07-28T10:31:07;8.20;;;2.47;;
21206;SDS011;10761;48.532;8.026;2023-07-28T10:33:44;3.00;;;2.42;;
21206;SDS011;10761;48.532;8.026;2023-07-28T10:38:47;3.97;;;2.88;;
21206;SDS011;10761;48.532;8.026;2023-07-28T10:41:37;2.55;;;2.30;;
21206;SDS011;10761;48.532;8.026;2023-07-28T10:44:03;4.47;;;2.85;;
21206;SDS011;10761;48.532;8.026;2023-07-28T10:46:29;2.95;;;2.67;;
21206;SDS011;10761;48.532;8.026;2023-07-28T10:48:54;5.30;;;2.75;;
21206;SDS011;10761;48.532;8.026;2023-07-28T10:51:29;7.90;;;3.03;;
21206;SDS011;10761;48.532;8.026;2023-07-28T10:53:57;5.85;;;2.88;;
21206;SDS011;10761;48.532;8.026;2023-07-28T10:56:24;3.70;;;3.10;;
21206;SDS011;10761;48.532;8.026;2023-07-28T10:59:00;6.15;;;2.90;;
21206;SDS011;10761;48.532;8.026;2023-07-28T11:01:39;3.70;;;2.45;;
21206;SDS011;10761;48.532;8.026;2023-07-28T11:04:15;5.50;;;2.70;;
21206;SDS011;10761;48.532;8.026;2023-07-28T11:06:45;4.32;;;2.80;;
21206;SDS011;10761;48.532;8.026;2023-07-28T11:09:17;3.10;;;2.45;;
21206;SDS011;10761;48.532;8.026;2023-07-28T11:11:46;3.35;;;2.70;;
21206;SDS011;10761;48.532;8.026;2023-07-28T11:14:12;2.88;;;2.60;;
21206;SDS011;10761;48.532;8.026;2023-07-28T11:16:41;4.30;;;2.92;;
21206;SDS011;10761;48.532;8.026;2023-07-28T11:19:10;3.25;;;2.65;;
21206;SDS011;10761;48.532;8.026;2023-07-28T11:21:40;4.72;;;2.40;;
21206;SDS011;10761;48.532;8.026;2023-07-28T11:24:06;2.80;;;2.58;;
21206;SDS011;10761;48.532;8.026;2023-07-28T11:26:36;3.00;;;2.72;;
21206;SDS011;10761;48.532;8.026;2023-07-28T11:29:02;3.03;;;2.40;;
21206;SDS011;10761;48.532;8.026;2023-07-28T11:31:29;5.53;;;2.60;;
21206;SDS011;10761;48.532;8.026;2023-07-28T11:33:55;2.72;;;2.53;;
21206;SDS011;10761;48.532;8.026;2023-07-28T11:36:21;5.15;;;2.65;;
21206;SDS011;10761;48.532;8.026;2023-07-28T11:38:48;4.32;;;2.63;;
21206;SDS011;10761;48.532;8.026;2023-07-28T11:41:14;3.50;;;2.60;;
21206;SDS011;10761;48.532;8.026;2023-07-28T11:43:40;3.50;;;2.63;;
21206;SDS011;10761;48.532;8.026;2023-07-28T11:51:49;5.38;;;2.90;;
21206;SDS011;10761;48.532;8.026;2023-07-28T11:54:18;3.05;;;2.75;;
21206;SDS011;10761;48.532;8.026;2023-07-28T11:56:47;2.83;;;2.63;;
21206;SDS011;10761;48.532;8.026;2023-07-28T11:59:18;3.25;;;2.65;;
21206;SDS011;10761;48.532;8.026;2023-07-28T12:01:54;5.13;;;3.03;;
21206;SDS011;10761;48.532;8.026;2023-07-28T12:04:22;3.47;;;2.97;;
21206;SDS011;10761;48.532;8.026;2023-07-28T12:12:11;3.97;;;3.25;;
21206;SDS011;10761;48.532;8.026;2023-07-28T12:14:37;3.58;;;3.22;;
21206;SDS011;10761;48.532;8.026;2023-07-28T12:17:11;4.25;;;3.10;;
21206;SDS011;10761;48.532;8.026;2023-07-28T12:22:40;5.85;;;3.63;;
21206;SDS011;10761;48.532;8.026;2023-07-28T12:25:07;5.03;;;3.60;;
21206;SDS011;10761;48.532;8.026;2023-07-28T12:27:33;5.32;;;3.53;;
21206;SDS011;10761;48.532;8.026;2023-07-28T12:29:59;4.53;;;3.30;;
21206;SDS011;10761;48.532;8.026;2023-07-28T12:32:26;3.92;;;3.50;;
21206;SDS011;10761;48.532;8.026;2023-07-28T12:34:52;6.05;;;3.28;;
21206;SDS011;10761;48.532;8.026;2023-07-28T12:37:18;4.50;;;3.60;;
21206;SDS011;10761;48.532;8.026;2023-07-28T12:39:45;4.50;;;3.25;;
21206;SDS011;10761;48.532;8.026;2023-07-28T12:42:11;3.92;;;3.20;;
21206;SDS011;10761;48.532;8.026;2023-07-28T12:44:37;4.28;;;3.40;;
21206;SDS011;10761;48.532;8.026;2023-07-28T12:47:04;5.95;;;3.15;;
21206;SDS011;10761;48.532;8.026;2023-07-28T12:49:30;4.10;;;3.50;;
21206;SDS011;10761;48.532;8.026;2023-07-28T12:51:56;6.97;;;3.60;;
21206;SDS011;10761;48.532;8.026;2023-07-28T12:54:23;5.03;;;3.55;;
21206;SDS011;10761;48.532;8.026;2023-07-28T12:56:49;6.40;;;3.72;;
21206;SDS011;10761;48.532;8.026;2023-07-28T12:59:16;6.75;;;4.00;;
21206;SDS011;10761;48.532;8.026;2023-07-28T13:01:41;4.25;;;3.60;;
21206;SDS011;10761;48.532;8.026;2023-07-28T13:04:07;5.57;;;3.97;;
21206;SDS011;10761;48.532;8.026;2023-07-28T13:06:33;6.38;;;4.00;;
21206;SDS011;10761;48.532;8.026;2023-07-28T13:08:59;4.75;;;3.60;;
21206;SDS011;10761;48.532;8.026;2023-07-28T13:11:24;4.93;;;4.15;;
21206;SDS011;10761;48.532;8.026;2023-07-28T13:13:50;5.25;;;4.03;;
21206;SDS011;10761;48.532;8.026;2023-07-28T13:16:16;5.28;;;4.18;;
21206;SDS011;10761;48.532;8.026;2023-07-28T13:18:44;6.43;;;3.92;;
21206;SDS011;10761;48.532;8.026;2023-07-28T13:21:10;7.43;;;3.40;;
21206;SDS011;10761;48.532;8.026;2023-07-28T13:23:36;4.47;;;3.38;;
21206;SDS011;10761;48.532;8.026;2023-07-28T13:26:05;3.83;;;3.53;;
21206;SDS011;10761;48.532;8.026;2023-07-28T13:28:31;4.63;;;3.65;;
21206;SDS011;10761;48.532;8.026;2023-07-28T13:30:57;5.97;;;4.10;;
21206;SDS011;10761;48.532;8.026;2023-07-28T13:33:23;7.78;;;4.10;;
21206;SDS011;10761;48.532;8.026;2023-07-28T13:35:49;5.20;;;3.72;;
21206;SDS011;10761;48.532;8.026;2023-07-28T13:38:15;4.38;;;3.97;;
21206;SDS011;10761;48.532;8.026;2023-07-28T13:40:40;4.32;;;3.80;;
21206;SDS011;10761;48.532;8.026;2023-07-28T13:43:06;3.70;;;3.40;;
21206;SDS011;10761;48.532;8.026;2023-07-28T13:45:32;5.30;;;3.40;;
21206;SDS011;10761;48.532;8.026;2023-07-28T13:47:57;5.10;;;3.60;;
21206;SDS011;10761;48.532;8.026;2023-07-28T13:50:23;3.75;;;3.30;;
21206;SDS011;10761;48.532;8.026;2023-07-28T13:52:49;3.92;;;3.60;;
21206;SDS011;10761;48.532;8.026;2023-07-28T13:55:14;5.22;;;3.67;;
21206;SDS011;10761;48.532;8.026;2023-07-28T13:57:40;3.65;;;3.22;;
21206;SDS011;10761;48.532;8.026;2023-07-28T14:00:06;5.53;;;4.00;;
21206;SDS011;10761;48.532;8.026;2023-07-28T14:02:36;4.07;;;3.50;;
21206;SDS011;10761;48.532;8.026;2023-07-28T14:05:02;4.28;;;3.88;;
21206;SDS011;10761;48.532;8.026;2023-07-28T14:07:28;6.85;;;3.85;;
21206;SDS011;10761;48.532;8.026;2023-07-28T14:09:55;6.03;;;3.95;;
21206;SDS011;10761;48.532;8.026;2023-07-28T14:12:20;3.95;;;3.33;;
21206;SDS011;10761;48.532;8.026;2023-07-28T14:14:46;4.72;;;3.50;;
21206;SDS011;10761;48.532;8.026;2023-07-28T14:17:12;4.75;;;3.80;;
21206;SDS011;10761;48.532;8.026;2023-07-28T14:19:38;5.50;;;3.83;;
21206;SDS011;10761;48.532;8.026;2023-07-28T14:22:05;5.95;;;4.80;;
21206;SDS011;10761;48.532;8.026;2023-07-28T14:24:32;7.45;;;6.18;;
21206;SDS011;10761;48.532;8.026;2023-07-28T14:27:01;5.78;;;5.07;;
21206;SDS011;10761;48.532;8.026;2023-07-28T14:29:27;7.68;;;5.13;;
21206;SDS011;10761;48.532;8.026;2023-07-28T14:31:53;4.90;;;4.05;;
21206;SDS011;10761;48.532;8.026;2023-07-28T14:34:19;6.35;;;4.32;;
21206;SDS011;10761;48.532;8.026;2023-07-28T14:36:44;5.93;;;4.88;;
21206;SDS011;10761;48.532;8.026;2023-07-28T14:39:10;5.35;;;4.65;;
21206;SDS011;10761;48.532;8.026;2023-07-28T14:41:36;4.95;;;4.43;;
21206;SDS011;10761;48.532;8.026;2023-07-28T14:44:02;6.20;;;4.32;;
21206;SDS011;10761;48.532;8.026;2023-07-28T14:46:27;6.50;;;4.22;;
21206;SDS011;10761;48.532;8.026;2023-07-28T14:48:53;7.45;;;4.65;;
21206;SDS011;10761;48.532;8.026;2023-07-28T14:51:20;6.55;;;4.78;;
21206;SDS011;10761;48.532;8.026;2023-07-28T14:53:45;4.90;;;3.90;;
21206;SDS011;10761;48.532;8.026;2023-07-28T14:56:12;5.18;;;4.15;;
21206;SDS011;10761;48.532;8.026;2023-07-28T14:58:39;5.68;;;4.43;;
21206;SDS011;10761;48.532;8.026;2023-07-28T15:01:09;4.40;;;4.00;;
21206;SDS011;10761;48.532;8.026;2023-07-28T15:03:35;4.50;;;3.72;;
21206;SDS011;10761;48.532;8.026;2023-07-28T15:06:02;5.68;;;4.03;;